Time;durP1;ratioP1;P1;durP2;ratioP2;P2;SDS_P1;SDS_P2;PMS_P1;PMS_P2;Temp;Humidity;BMP_temperature;BMP_pressure;BME280_temperature;BME280_humidity;BME280_pressure;Samples;Min_cycle;Max_cycle;Signal;HPM_P1;HPM_P2
2023/04/01 00:00:29;;;;;;;2.63;0.80;;;;;;;19.14;47.11;99077.47;4988687;28;20062;-68
2023/04/01 00:02:55;;;;;;;2.53;0.70;;;;;;;19.15;46.91;99073.84;4985039;28;20084;-69
2023/04/01 00:05:20;;;;;;;3.85;0.80;;;;;;;19.15;46.98;99075.66;4988594;28;20376;-68
2023/04/01 00:07:46;;;;;;;3.28;0.85;;;;;;;19.14;46.90;99082.75;4982210;28;20117;-67
2023/04/01 00:10:12;;;;;;;3.88;1.00;;;;;;;19.15;46.80;99080.94;4982062;28;20077;-68
2023/04/01 00:12:38;;;;;;;3.33;0.88;;;;;;;19.13;46.81;99080.28;4982234;28;20500;-66
2023/04/01 00:15:06;;;;;;;2.78;0.75;;;;;;;19.13;46.93;99075.00;4992532;28;20121;-68
2023/04/01 00:17:31;;;;;;;2.88;0.80;;;;;;;19.12;46.95;99074.19;4981935;28;20037;-70
2023/04/01 00:19:57;;;;;;;3.42;0.90;;;;;;;19.11;47.00;99088.38;4966764;28;20054;-68
2023/04/01 00:22:23;;;;;;;3.50;1.00;;;;;;;19.11;46.84;99082.28;4982238;28;20093;-69
2023/04/01 00:24:49;;;;;;;2.53;0.63;;;;;;;19.08;46.81;99086.09;4992122;28;20038;-68
2023/04/01 00:27:15;;;;;;;2.47;0.90;;;;;;;19.11;47.01;99075.19;4977871;28;20023;-68
2023/04/01 00:29:45;;;;;;;2.88;0.70;;;;;;;19.08;46.96;99078.16;4991604;28;20100;-67
2023/04/01 00:32:10;;;;;;;1.83;0.65;;;;;;;19.10;46.87;99091.19;4981808;28;20870;-69
2023/04/01 00:34:36;;;;;;;2.05;0.70;;;;;;;19.08;46.91;99090.56;4985981;28;20031;-69
2023/04/01 00:37:02;;;;;;;2.53;0.70;;;;;;;19.09;46.92;99086.91;4983627;28;20070;-68
2023/04/01 00:39:31;;;;;;;3.38;0.90;;;;;;;19.05;46.92;99093.53;4990942;28;20085;-70
2023/04/01 00:41:57;;;;;;;2.92;0.93;;;;;;;19.05;46.92;99089.06;5001682;28;20073;-70
2023/04/01 00:44:29;;;;;;;3.03;0.90;;;;;;;19.06;47.04;99097.81;4975617;28;20038;-67
2023/04/01 00:46:56;;;;;;;2.33;0.70;;;;;;;19.05;47.05;99098.81;4982866;28;20479;-68
2023/04/01 00:49:37;;;;;;;2.92;0.80;;;;;;;19.05;46.91;99106.75;4982753;28;20148;-70
2023/04/01 00:52:04;;;;;;;2.90;0.80;;;;;;;19.04;46.98;99103.25;4981610;28;20038;-71
2023/04/01 00:54:31;;;;;;;3.50;1.00;;;;;;;19.04;47.05;99111.16;4983797;28;20441;-70
2023/04/01 00:57:01;;;;;;;2.28;0.70;;;;;;;19.01;47.04;99107.06;4993863;28;20030;-69
2023/04/01 00:59:33;;;;;;;3.10;0.80;;;;;;;19.02;47.03;99111.34;4996182;28;20042;-68
2023/04/01 01:02:01;;;;;;;2.53;0.70;;;;;;;18.98;46.81;99110.06;4994421;28;20026;-71
2023/04/01 01:04:29;;;;;;;3.17;0.80;;;;;;;19.01;46.99;99119.47;4989161;28;20022;-69
2023/04/01 01:07:08;;;;;;;2.47;0.68;;;;;;;18.98;46.90;99115.34;4997312;28;20459;-68
2023/04/01 01:10:07;;;;;;;3.35;1.00;;;;;;;18.99;47.05;99116.16;4986495;28;20077;-69
2023/04/01 01:12:56;;;;;;;3.05;0.80;;;;;;;18.97;46.84;99118.16;4992936;28;20122;-69
2023/04/01 01:15:26;;;;;;;2.95;0.85;;;;;;;18.96;46.97;99119.97;4985413;28;20033;-68
2023/04/01 01:18:24;;;;;;;2.55;0.70;;;;;;;18.98;46.94;99119.81;4986296;28;20034;-69
2023/04/01 01:21:01;;;;;;;2.80;0.93;;;;;;;18.97;46.86;99121.59;4984253;28;20046;-68
2023/04/01 01:23:38;;;;;;;2.42;0.63;;;;;;;18.97;47.00;99126.06;4990628;28;20076;-71
2023/04/01 01:26:29;;;;;;;2.95;0.73;;;;;;;18.97;46.76;99126.06;4995255;28;20084;-68
2023/04/01 01:29:29;;;;;;;1.92;0.70;;;;;;;18.95;47.06;99123.59;4978364;28;20105;-68
2023/04/01 01:32:31;;;;;;;2.25;0.73;;;;;;;18.95;47.08;99128.88;4985113;28;20038;-70
2023/04/01 01:35:15;;;;;;;2.70;0.70;;;;;;;18.94;46.99;99129.88;4985928;28;20039;-68
2023/04/01 01:37:43;;;;;;;2.38;0.98;;;;;;;18.89;47.01;99116.38;4988091;28;20045;-69
2023/04/01 01:40:11;;;;;;;2.22;0.73;;;;;;;18.93;46.99;99130.03;4999097;28;20398;-68
2023/04/01 01:42:40;;;;;;;1.65;0.70;;;;;;;18.91;47.06;99132.84;5000550;28;20037;-69
2023/04/01 01:45:07;;;;;;;2.85;0.90;;;;;;;18.90;47.01;99136.50;4972559;28;20133;-71
2023/04/01 01:47:34;;;;;;;2.28;0.70;;;;;;;18.87;47.24;99131.56;4988161;28;20497;-69
2023/04/01 01:50:01;;;;;;;3.05;0.80;;;;;;;18.89;47.16;99141.94;4999826;28;20053;-69
2023/04/01 01:52:28;;;;;;;2.55;0.70;;;;;;;18.91;47.28;99145.22;5000536;28;20038;-71
2023/04/01 01:54:55;;;;;;;2.40;0.73;;;;;;;18.90;47.13;99144.41;4998046;28;20134;-69
2023/04/01 01:57:26;;;;;;;1.65;0.60;;;;;;;18.87;47.03;99144.75;5001575;28;20034;-68
2023/04/01 01:59:56;;;;;;;2.60;0.80;;;;;;;18.91;47.00;99150.50;5004221;28;20042;-69
2023/04/01 02:02:25;;;;;;;2.90;0.70;;;;;;;18.87;47.01;99149.19;5003106;28;20034;-69
2023/04/01 02:04:52;;;;;;;1.58;0.68;;;;;;;18.79;47.13;99140.28;5004073;28;20061;-68
2023/04/01 02:07:27;;;;;;;1.65;0.60;;;;;;;18.89;46.95;99163.06;4984437;28;20070;-68
2023/04/01 02:09:53;;;;;;;2.25;0.77;;;;;;;18.88;47.10;99164.03;5003921;28;20030;-68
2023/04/01 02:12:21;;;;;;;2.50;1.33;;;;;;;18.88;47.21;99161.41;4985144;28;20049;-69
2023/04/01 02:14:57;;;;;;;2.45;0.90;;;;;;;18.86;47.15;99169.50;4992044;28;20036;-68
2023/04/01 02:17:27;;;;;;;1.20;0.60;;;;;;;18.86;47.16;99169.50;5003789;28;20030;-69
2023/04/01 02:20:00;;;;;;;1.90;0.85;;;;;;;18.85;46.93;99166.03;4984461;28;20486;-69
2023/04/01 02:22:33;;;;;;;2.03;0.80;;;;;;;18.85;47.02;99167.88;4984187;28;20046;-69
2023/04/01 02:25:04;;;;;;;2.28;1.00;;;;;;;18.83;46.97;99164.53;4972952;28;20283;-69
2023/04/01 02:27:30;;;;;;;2.22;1.00;;;;;;;18.84;47.02;99169.66;5003726;28;20080;-67
2023/04/01 02:29:56;;;;;;;2.63;1.00;;;;;;;18.83;46.88;99167.16;5003428;28;20293;-68
2023/04/01 02:32:22;;;;;;;2.60;1.02;;;;;;;18.83;47.06;99168.00;4990072;28;20467;-69
2023/04/01 02:34:49;;;;;;;2.70;1.02;;;;;;;18.81;46.99;99169.97;4994656;28;20505;-67
2023/04/01 02:37:15;;;;;;;3.28;1.02;;;;;;;18.84;47.02;99166.22;5003269;28;20038;-68
2023/04/01 02:39:42;;;;;;;3.55;1.10;;;;;;;18.80;47.00;99170.97;5003585;28;20044;-69
2023/04/01 02:42:07;;;;;;;3.35;1.20;;;;;;;18.81;47.04;99180.53;4969577;28;20037;-67
2023/04/01 02:44:33;;;;;;;1.95;1.00;;;;;;;18.79;46.99;99169.31;4984215;28;20034;-68
2023/04/01 02:46:58;;;;;;;1.88;0.90;;;;;;;18.81;47.06;99166.50;4989477;28;20034;-68
2023/04/01 02:49:23;;;;;;;4.25;1.30;;;;;;;18.82;46.95;99173.44;4993303;28;20491;-68
2023/04/01 02:51:49;;;;;;;2.42;1.10;;;;;;;18.82;46.99;99174.25;4989082;28;20046;-68
2023/04/01 02:54:14;;;;;;;2.25;1.15;;;;;;;18.79;46.86;99179.88;4997356;28;20387;-68
2023/04/01 02:56:39;;;;;;;3.42;1.30;;;;;;;18.78;47.16;99180.03;4983537;28;20117;-68
2023/04/01 02:59:05;;;;;;;2.70;1.15;;;;;;;18.76;46.61;99180.22;4983556;28;20042;-70
2023/04/01 03:01:30;;;;;;;2.65;1.30;;;;;;;18.76;46.66;99174.13;4983339;28;20467;-72
2023/04/01 03:03:55;;;;;;;2.92;1.30;;;;;;;18.78;47.04;99182.69;4987914;28;20048;-68
2023/04/01 03:06:21;;;;;;;3.70;1.40;;;;;;;18.76;47.10;99182.84;5003170;28;20489;-67
2023/04/01 03:08:46;;;;;;;3.00;1.40;;;;;;;18.78;46.93;99188.78;5002385;28;20364;-69
2023/04/01 03:11:12;;;;;;;2.97;1.17;;;;;;;18.75;46.76;99186.47;4990445;28;20471;-68
2023/04/01 03:13:38;;;;;;;2.53;1.10;;;;;;;18.74;46.82;99190.13;4983358;28;20042;-67
2023/04/01 03:16:04;;;;;;;2.88;1.17;;;;;;;18.74;46.93;99200.69;4985509;28;20049;-69
2023/04/01 03:18:29;;;;;;;2.83;1.30;;;;;;;18.75;46.90;99202.31;4995138;28;20499;-68
2023/04/01 03:20:55;;;;;;;2.47;1.25;;;;;;;18.76;46.99;99203.16;4984751;28;20137;-68
2023/04/01 03:23:20;;;;;;;2.45;1.17;;;;;;;18.72;46.97;99201.84;4991424;28;20382;-68
2023/04/01 03:25:47;;;;;;;2.80;1.13;;;;;;;18.74;46.63;99210.41;4993756;28;20084;-68
2023/04/01 03:28:13;;;;;;;2.53;1.15;;;;;;;18.73;47.05;99206.94;5002170;28;20121;-69
2023/04/01 03:30:38;;;;;;;2.70;1.27;;;;;;;18.74;46.92;99210.41;5002747;28;20125;-70
2023/04/01 03:33:04;;;;;;;2.15;1.10;;;;;;;18.71;47.02;99208.94;5002376;28;20108;-69
2023/04/01 03:35:29;;;;;;;2.92;1.10;;;;;;;18.72;46.99;99217.66;4995614;28;20037;-67
2023/04/01 03:37:55;;;;;;;2.75;1.20;;;;;;;18.71;46.96;99210.72;4983389;28;20045;-69
2023/04/01 03:40:21;;;;;;;2.35;1.05;;;;;;;18.70;46.91;99217.81;5001745;28;20033;-68
2023/04/01 03:42:46;;;;;;;3.10;1.25;;;;;;;18.72;46.90;99215.84;5002306;28;20388;-69
2023/04/01 03:45:12;;;;;;;2.95;1.00;;;;;;;18.71;47.18;99216.00;4993873;28;20218;-68
2023/04/01 03:47:38;;;;;;;2.65;1.20;;;;;;;18.72;47.04;99215.84;4986462;28;20084;-68
2023/04/01 03:50:05;;;;;;;2.75;1.17;;;;;;;18.71;47.20;99223.91;4986439;28;20072;-70
2023/04/01 03:52:30;;;;;;;2.85;1.20;;;;;;;18.68;46.95;99214.53;4997608;28;20042;-67
2023/04/01 03:54:56;;;;;;;3.60;1.15;;;;;;;18.70;46.99;99223.09;4992528;28;20084;-68
2023/04/01 03:57:21;;;;;;;3.08;1.00;;;;;;;18.71;47.21;99226.56;5002031;28;20486;-69
2023/04/01 03:59:46;;;;;;;2.13;1.00;;;;;;;18.70;46.83;99225.75;5001735;28;20038;-69
2023/04/01 04:02:12;;;;;;;1.92;0.98;;;;;;;18.68;46.77;99228.56;5001630;28;20030;-68
2023/04/01 04:04:37;;;;;;;2.50;1.17;;;;;;;18.69;46.81;99218.81;4993717;28;20072;-68
2023/04/01 04:07:02;;;;;;;2.17;0.93;;;;;;;18.71;46.92;99227.41;4984537;28;20037;-70
2023/04/01 04:09:30;;;;;;;1.33;0.80;;;;;;;18.70;47.05;99238.13;4994242;28;20122;-67
2023/04/01 04:11:55;;;;;;;3.30;1.17;;;;;;;18.68;46.93;99241.75;4990097;28;20390;-70
2023/04/01 04:14:20;;;;;;;1.77;0.80;;;;;;;18.69;46.91;99242.56;4983595;28;20034;-71
2023/04/01 04:16:46;;;;;;;2.20;1.00;;;;;;;18.70;46.90;99243.41;4964319;28;20467;-68
2023/04/01 04:19:11;;;;;;;1.52;0.80;;;;;;;18.69;46.79;99245.19;4993152;28;20096;-68
2023/04/01 04:21:36;;;;;;;1.83;0.95;;;;;;;18.69;46.79;99250.47;5001306;28;20387;-69
2023/04/01 04:24:02;;;;;;;1.60;0.90;;;;;;;18.68;46.80;99249.66;4994969;28;20038;-69
2023/04/01 04:26:27;;;;;;;3.05;0.93;;;;;;;18.69;46.92;99255.75;4982359;28;20038;-68
2023/04/01 04:28:54;;;;;;;2.03;0.90;;;;;;;18.66;46.93;99262.22;4989320;28;20034;-70
2023/04/01 04:31:20;;;;;;;2.60;1.02;;;;;;;18.64;46.86;99256.28;4983847;28;20048;-69
2023/04/01 04:33:45;;;;;;;2.47;0.98;;;;;;;18.65;46.87;99257.09;4981799;28;20715;-67
2023/04/01 04:36:11;;;;;;;1.88;0.90;;;;;;;18.64;46.76;99261.56;5001869;28;20045;-70
2023/04/01 04:38:36;;;;;;;2.28;0.90;;;;;;;18.66;46.99;99262.22;4981542;28;20100;-71
2023/04/01 04:41:01;;;;;;;2.65;0.98;;;;;;;18.64;46.76;99258.91;4999889;28;20061;-70
2023/04/01 04:43:27;;;;;;;3.08;0.90;;;;;;;18.64;46.73;99266.00;4989372;28;20037;-68
2023/04/01 04:45:52;;;;;;;2.67;0.80;;;;;;;18.63;46.86;99262.53;5000901;28;20034;-68
2023/04/01 04:48:20;;;;;;;1.67;0.90;;;;;;;18.64;46.76;99271.25;4981814;28;20036;-70
2023/04/01 04:50:48;;;;;;;1.95;0.80;;;;;;;18.63;46.75;99275.72;4996278;28;20439;-70
2023/04/01 04:53:15;;;;;;;1.60;0.80;;;;;;;18.64;46.94;99279.19;4994683;28;20050;-70
2023/04/01 04:55:48;;;;;;;1.75;0.80;;;;;;;18.61;46.85;99277.72;4981827;28;20059;-70
2023/04/01 04:58:14;;;;;;;1.50;0.80;;;;;;;18.61;46.71;99279.50;4984470;28;20046;-69
2023/04/01 05:00:40;;;;;;;3.15;0.70;;;;;;;18.62;46.69;99289.09;5000907;28;20119;-67
2023/04/01 05:03:05;;;;;;;1.38;0.70;;;;;;;18.62;46.83;99286.44;4991792;28;20143;-70
2023/04/01 05:05:31;;;;;;;1.25;0.70;;;;;;;18.59;46.63;99289.41;5001212;28;20466;-68
2023/04/01 05:07:56;;;;;;;1.65;0.68;;;;;;;18.60;46.85;99293.72;4977882;28;20033;-68
2023/04/01 05:10:22;;;;;;;1.17;0.70;;;;;;;18.60;46.77;99299.81;4991505;28;20034;-70
2023/04/01 05:12:47;;;;;;;0.73;0.60;;;;;;;18.58;46.78;99293.88;4982491;28;20405;-68
2023/04/01 05:15:13;;;;;;;1.77;0.60;;;;;;;18.56;46.91;99300.28;4981764;28;20533;-69
2023/04/01 05:17:39;;;;;;;0.55;0.47;;;;;;;18.55;46.86;99303.91;4994602;28;20325;-70
2023/04/01 05:20:05;;;;;;;1.30;0.60;;;;;;;18.57;46.99;99304.59;5000954;28;20049;-69
2023/04/01 05:22:30;;;;;;;1.05;0.60;;;;;;;18.58;47.00;99306.22;5000523;28;20144;-68
2023/04/01 05:24:55;;;;;;;0.77;0.50;;;;;;;18.59;46.37;99313.97;4993508;28;20037;-70
2023/04/01 05:27:21;;;;;;;1.05;0.60;;;;;;;18.61;46.77;99319.94;5000753;28;20030;-69
2023/04/01 05:29:46;;;;;;;1.35;0.60;;;;;;;18.62;47.03;99318.91;4986240;28;20033;-69
2023/04/01 05:32:11;;;;;;;0.98;0.50;;;;;;;18.63;46.86;99317.94;5002417;28;20045;-69
2023/04/01 05:34:37;;;;;;;1.15;0.60;;;;;;;18.66;46.93;99322.06;5001734;28;20569;-68
2023/04/01 05:37:02;;;;;;;0.60;0.40;;;;;;;18.67;47.11;99335.09;4974142;28;20037;-67
2023/04/01 05:39:28;;;;;;;1.10;0.50;;;;;;;18.70;46.99;99328.66;4988378;28;20350;-69
2023/04/01 05:41:53;;;;;;;0.70;0.40;;;;;;;18.71;46.93;99334.75;4999805;28;20045;-68
2023/04/01 05:44:18;;;;;;;1.30;0.50;;;;;;;18.76;47.03;99343.03;4999109;28;20034;-69
2023/04/01 05:46:44;;;;;;;0.82;0.40;;;;;;;18.75;46.90;99346.63;4985673;28;20057;-69
2023/04/01 05:49:09;;;;;;;0.90;0.40;;;;;;;18.79;46.92;99355.91;4997343;28;20060;-70
2023/04/01 05:51:34;;;;;;;0.82;0.52;;;;;;;18.79;47.01;99361.97;5004437;28;20026;-69
2023/04/01 05:54:00;;;;;;;0.93;0.50;;;;;;;18.83;46.82;99363.31;4977411;28;20034;-69
2023/04/01 05:56:25;;;;;;;0.68;0.40;;;;;;;18.83;46.92;99362.47;4994901;28;20092;-69
2023/04/01 05:58:53;;;;;;;0.77;0.50;;;;;;;18.89;46.85;99366.31;4983122;28;20125;-70
2023/04/01 06:01:18;;;;;;;0.40;0.40;;;;;;;18.87;46.81;99363.84;4997655;28;20101;-70
2023/04/01 06:03:44;;;;;;;0.82;0.40;;;;;;;18.89;46.85;99367.13;4990472;28;20033;-71
2023/04/01 06:06:23;;;;;;;1.05;0.50;;;;;;;18.89;46.66;99385.59;4995505;28;20041;-69
2023/04/01 06:08:49;;;;;;;1.17;0.50;;;;;;;18.92;46.71;99382.63;5003895;28;20572;-69
2023/04/01 06:11:36;;;;;;;0.93;0.50;;;;;;;18.94;46.58;99387.75;4997640;28;20058;-69
2023/04/01 06:14:05;;;;;;;1.85;0.50;;;;;;;18.96;46.48;99401.59;4997921;28;20656;-68
2023/04/01 06:16:51;;;;;;;0.90;0.60;;;;;;;18.95;46.82;99394.69;4995293;28;20041;-67
2023/04/01 06:19:35;;;;;;;0.52;0.40;;;;;;;18.96;46.73;99405.09;4974720;28;20475;-69
2023/04/01 06:22:16;;;;;;;0.60;0.40;;;;;;;18.99;46.78;99406.56;4998872;28;20037;-68
2023/04/01 06:25:05;;;;;;;1.20;0.50;;;;;;;18.99;46.59;99410.03;4996641;28;20423;-69
2023/04/01 06:27:57;;;;;;;1.48;0.50;;;;;;;18.99;46.68;99410.03;4991492;28;20037;-69
2023/04/01 06:30:37;;;;;;;1.67;0.60;;;;;;;19.03;46.38;99421.09;4984231;28;20200;-68
2023/04/01 06:33:18;;;;;;;0.80;0.50;;;;;;;19.01;46.49;99417.78;4984147;28;20096;-68
2023/04/01 06:36:08;;;;;;;0.70;0.50;;;;;;;18.95;46.57;99416.63;4997399;28;20410;-69
2023/04/01 06:38:54;;;;;;;2.03;0.50;;;;;;;19.02;46.93;99428.16;4995222;28;20108;-68
2023/04/01 06:41:29;;;;;;;2.15;0.60;;;;;;;19.02;47.03;99420.25;4983971;28;20072;-68
2023/04/01 06:44:00;;;;;;;1.85;0.70;;;;;;;19.03;46.92;99427.19;4983211;28;20034;-69
2023/04/01 06:47:12;;;;;;;1.45;0.60;;;;;;;19.02;47.00;99436.09;4984206;28;20046;-70
2023/04/01 06:49:56;;;;;;;1.75;0.60;;;;;;;19.03;47.03;99431.66;4983310;28;20495;-67
2023/04/01 06:52:54;;;;;;;1.17;0.60;;;;;;;19.04;47.31;99443.84;5000837;28;20037;-67
2023/04/01 06:55:27;;;;;;;3.78;0.73;;;;;;;19.02;47.17;99444.00;4986900;28;20026;-68
2023/04/01 06:57:57;;;;;;;1.48;0.80;;;;;;;19.04;47.12;99449.13;4983362;28;20038;-70
2023/04/01 07:00:32;;;;;;;2.42;0.90;;;;;;;19.04;47.20;99454.41;4991956;28;21209;-69
2023/04/01 07:03:21;;;;;;;1.77;0.70;;;;;;;18.99;47.46;99451.44;4985815;28;20042;-68
2023/04/01 07:05:47;;;;;;;1.25;0.65;;;;;;;19.02;47.18;99466.94;4983455;28;20042;-69
2023/04/01 07:08:27;;;;;;;1.52;0.60;;;;;;;19.03;47.47;99466.78;4990999;28;21023;-68
2023/04/01 07:11:09;;;;;;;1.35;0.60;;;;;;;19.03;47.68;99465.97;4997096;28;20030;-68
2023/04/01 07:13:52;;;;;;;1.83;0.70;;;;;;;19.04;47.68;99470.25;4990113;28;20042;-68
2023/04/01 07:16:27;;;;;;;3.88;0.95;;;;;;;19.05;47.47;99471.91;4988675;28;20472;-67
2023/04/01 07:19:16;;;;;;;2.10;0.80;;;;;;;19.05;47.59;99477.19;4982834;28;20038;-69
2023/04/01 07:21:48;;;;;;;1.65;0.70;;;;;;;19.01;47.62;99474.06;4989575;28;20121;-69
2023/04/01 07:24:25;;;;;;;3.20;0.90;;;;;;;19.02;47.52;99480.97;4997854;28;20049;-68
2023/04/01 07:26:55;;;;;;;1.70;0.90;;;;;;;19.02;47.55;99480.16;4999125;28;20380;-68
2023/04/01 07:29:20;;;;;;;1.50;0.75;;;;;;;19.01;47.35;99484.63;4965247;28;20044;-66
2023/04/01 07:31:58;;;;;;;1.25;0.60;;;;;;;19.00;47.91;99487.41;4994302;28;20037;-68
2023/04/01 07:34:24;;;;;;;2.95;0.80;;;;;;;19.04;47.71;99496.66;4991306;28;20030;-68
2023/04/01 07:37:15;;;;;;;2.17;0.82;;;;;;;19.05;47.86;99505.41;4990770;28;20410;-69
2023/04/01 07:40:14;;;;;;;2.28;1.00;;;;;;;19.05;48.08;99511.50;5002123;28;20038;-68
2023/04/01 07:42:57;;;;;;;3.97;1.27;;;;;;;19.05;48.77;99514.16;5002421;28;20034;-67
2023/04/01 07:45:53;;;;;;;4.18;1.77;;;;;;;19.06;49.58;99515.81;4982729;28;20042;-67
2023/04/01 07:48:31;;;;;;;6.20;1.73;;;;;;;19.08;49.86;99513.00;4982649;28;20044;-68
2023/04/01 07:51:03;;;;;;;6.28;2.00;;;;;;;19.10;49.88;99521.59;4988395;28;20041;-67
2023/04/01 07:53:38;;;;;;;6.57;1.92;;;;;;;19.09;50.21;99526.06;4983470;28;20038;-67
2023/04/01 07:56:22;;;;;;;8.30;2.17;;;;;;;19.08;50.13;99526.22;4989268;28;20037;-68
2023/04/01 07:58:59;;;;;;;5.35;1.50;;;;;;;19.11;49.76;99537.28;4964881;28;20117;-69
2023/04/01 08:02:16;;;;;;;5.30;1.92;;;;;;;19.12;50.18;99548.66;4982672;28;20034;-68
2023/04/01 08:05:00;;;;;;;9.20;1.70;;;;;;;19.13;50.39;99540.56;4977576;28;20112;-68
2023/04/01 08:07:28;;;;;;;4.55;1.70;;;;;;;19.14;50.09;99547.50;4984449;28;20046;-66
2023/04/01 08:10:16;;;;;;;6.05;1.90;;;;;;;19.11;50.27;99547.84;4993659;28;20042;-67
2023/04/01 08:12:49;;;;;;;5.65;2.00;;;;;;;19.13;50.17;99552.97;4992036;28;20108;-66
2023/04/01 08:15:37;;;;;;;5.47;1.97;;;;;;;19.12;50.30;99560.06;4988065;28;20025;-66
2023/04/01 08:18:09;;;;;;;5.65;1.90;;;;;;;19.13;50.17;99560.88;4992072;28;20619;-69
2023/04/01 08:20:42;;;;;;;4.45;1.48;;;;;;;19.12;50.19;99565.34;4986701;28;20122;-68
2023/04/01 08:23:15;;;;;;;5.73;1.87;;;;;;;19.13;50.12;99569.63;4989795;28;20026;-68
2023/04/01 08:26:00;;;;;;;7.90;2.08;;;;;;;19.13;50.38;99574.91;4976783;28;20302;-69
2023/04/01 08:28:39;;;;;;;4.28;1.75;;;;;;;19.15;50.06;99583.50;4988036;28;20034;-69
2023/04/01 08:31:14;;;;;;;7.95;2.17;;;;;;;19.17;50.01;99580.72;4993080;28;20060;-68
2023/04/01 08:33:41;;;;;;;4.32;1.77;;;;;;;19.14;50.03;99579.22;4984273;28;20034;-68
2023/04/01 08:36:12;;;;;;;5.93;2.17;;;;;;;19.14;50.36;99575.75;4981759;28;20038;-67
2023/04/01 08:38:44;;;;;;;7.35;1.83;;;;;;;19.13;50.40;99588.09;4995025;28;20041;-68
2023/04/01 08:41:35;;;;;;;4.57;1.70;;;;;;;19.15;50.44;99588.78;4983613;28;20038;-67
2023/04/01 08:44:31;;;;;;;6.13;2.00;;;;;;;19.16;50.22;99594.88;4981418;28;20080;-67
2023/04/01 08:47:19;;;;;;;6.03;1.80;;;;;;;19.16;50.47;99594.88;4981791;28;20109;-69
2023/04/01 08:50:15;;;;;;;6.00;1.60;;;;;;;19.17;50.23;99602.66;4983778;28;20049;-68
2023/04/01 08:53:05;;;;;;;5.88;1.90;;;;;;;19.17;50.19;99605.28;4985551;28;20046;-69
2023/04/01 08:55:36;;;;;;;3.92;1.60;;;;;;;19.19;50.38;99613.06;4987806;28;20119;-69
2023/04/01 08:58:17;;;;;;;5.22;1.75;;;;;;;19.17;50.58;99618.50;4993457;28;20600;-69
2023/04/01 09:01:08;;;;;;;5.90;1.60;;;;;;;19.20;50.25;99625.25;4988524;28;20030;-67
2023/04/01 09:04:39;;;;;;;6.65;1.80;;;;;;;19.21;50.24;99627.72;4992462;28;20490;-70
2023/04/01 09:07:45;;;;;;;8.85;1.73;;;;;;;19.21;50.19;99632.19;4942110;28;20067;-68
2023/04/01 09:10:28;;;;;;;5.85;1.65;;;;;;;19.19;50.26;99635.00;4971830;28;20046;-67
2023/04/01 09:13:09;;;;;;;5.78;1.75;;;;;;;19.19;50.21;99635.00;4985894;28;20069;-68
2023/04/01 09:15:48;;;;;;;6.75;2.03;;;;;;;19.28;50.16;99640.31;4988867;28;20045;-69
2023/04/01 09:18:22;;;;;;;4.13;1.70;;;;;;;19.36;49.76;99643.00;5001975;28;20096;-69
2023/04/01 09:21:03;;;;;;;4.55;1.70;;;;;;;19.39;49.57;99651.41;4993682;28;20490;-67
2023/04/01 09:23:38;;;;;;;5.05;1.95;;;;;;;19.37;49.59;99648.09;5002341;28;20805;-67
2023/04/01 09:26:20;;;;;;;4.47;1.67;;;;;;;19.41;49.54;99648.59;4988410;28;20118;-70
2023/04/01 09:29:24;;;;;;;5.25;1.73;;;;;;;19.40;49.76;99658.31;4990636;28;20181;-70
2023/04/01 09:32:11;;;;;;;4.07;1.70;;;;;;;19.42;49.47;99658.16;4963645;28;20049;-69
2023/04/01 09:34:51;;;;;;;3.50;1.45;;;;;;;19.37;49.71;99652.53;4995432;28;20263;-72
2023/04/01 09:37:23;;;;;;;5.47;1.70;;;;;;;19.37;49.63;99663.94;4996199;28;20141;-67
2023/04/01 09:39:59;;;;;;;4.15;1.60;;;;;;;19.37;49.50;99661.28;4993276;28;20033;-67
2023/04/01 09:43:05;;;;;;;4.32;1.80;;;;;;;19.35;49.47;99662.47;5001403;28;20055;-67
2023/04/01 09:45:52;;;;;;;4.82;1.90;;;;;;;19.35;49.41;99673.84;4992425;28;20064;-68
2023/04/01 09:48:48;;;;;;;4.65;1.60;;;;;;;19.38;49.29;99678.81;4998166;28;20121;-68
2023/04/01 09:51:31;;;;;;;4.30;1.60;;;;;;;19.38;49.08;99680.63;4983767;28;20535;-66
2023/04/01 09:54:24;;;;;;;5.90;1.50;;;;;;;19.32;49.33;99673.34;4986830;28;21031;-69
2023/04/01 09:57:15;;;;;;;4.07;1.52;;;;;;;19.34;49.38;99681.94;4990606;28;20037;-68
2023/04/01 09:59:57;;;;;;;3.92;1.40;;;;;;;19.34;49.40;99685.41;4996566;28;20041;-69
2023/04/01 10:02:56;;;;;;;4.60;1.42;;;;;;;19.38;49.05;99691.19;4996413;28;20052;-69
2023/04/01 10:05:57;;;;;;;3.13;1.33;;;;;;;19.37;49.36;99692.19;4989678;28;20538;-67
2023/04/01 10:08:56;;;;;;;4.68;1.52;;;;;;;19.39;49.26;99695.47;4986473;28;20038;-67
2023/04/01 10:11:40;;;;;;;4.15;1.48;;;;;;;19.41;48.96;99701.44;4997714;28;20048;-68
2023/04/01 10:14:27;;;;;;;3.28;1.60;;;;;;;19.44;49.09;99705.56;4984015;28;20363;-68
2023/04/01 10:17:28;;;;;;;5.88;1.70;;;;;;;19.47;49.04;99703.44;4990713;28;20045;-70
2023/04/01 10:20:06;;;;;;;3.33;1.40;;;;;;;19.48;48.98;99710.38;4998631;28;20038;-70
2023/04/01 10:22:57;;;;;;;5.13;1.60;;;;;;;19.46;49.14;99709.72;4995494;28;20041;-68
2023/04/01 10:25:32;;;;;;;10.32;1.60;;;;;;;19.47;49.05;99713.16;4971433;28;20100;-67
2023/04/01 10:28:10;;;;;;;5.50;1.50;;;;;;;19.52;49.09;99722.28;4998143;28;20041;-69
2023/04/01 10:31:12;;;;;;;5.38;1.60;;;;;;;19.55;48.83;99721.13;4976730;28;20150;-69
2023/04/01 10:33:56;;;;;;;3.45;1.30;;;;;;;19.56;48.83;99725.44;4984264;28;20046;-68
2023/04/01 10:36:43;;;;;;;5.95;1.70;;;;;;;19.51;48.84;99730.38;4980960;28;20030;-70
2023/04/01 10:39:34;;;;;;;5.47;1.63;;;;;;;19.51;48.77;99725.09;4990376;28;20042;-71
2023/04/01 10:42:15;;;;;;;3.85;1.30;;;;;;;19.51;48.68;99725.91;4991461;28;20069;-73
2023/04/01 10:44:59;;;;;;;4.10;1.45;;;;;;;19.48;48.75;99726.22;4998499;28;20038;-71
2023/04/01 10:47:39;;;;;;;4.68;1.60;;;;;;;19.48;48.82;99730.69;4990035;28;20131;-71
2023/04/01 10:50:32;;;;;;;4.15;1.60;;;;;;;19.46;48.83;99737.97;4985038;28;20049;-70
2023/04/01 10:53:06;;;;;;;2.97;1.30;;;;;;;19.44;49.00;99737.28;5000772;28;20509;-68
2023/04/01 10:56:04;;;;;;;;;;;;;;;19.44;49.05;99746.03;4981538;28;20443;-68
2023/04/01 10:59:03;;;;;;;4.20;1.70;;;;;;;19.49;48.95;99740.28;4991215;28;19921;-67
2023/04/01 11:01:40;;;;;;;5.47;1.73;;;;;;;19.45;49.06;99750.31;4983135;28;20679;-66
2023/04/01 11:04:49;;;;;;;5.53;1.50;;;;;;;19.36;49.28;99740.75;4982970;28;20026;-69
2023/04/01 11:07:35;;;;;;;6.00;1.83;;;;;;;19.34;49.52;99748.81;4987715;28;20062;-66
2023/04/01 11:10:04;;;;;;;6.13;1.67;;;;;;;19.30;49.61;99744.81;4992309;28;20034;-66
2023/04/01 11:12:53;;;;;;;5.20;1.90;;;;;;;19.30;49.66;99749.28;4999106;28;20492;-69
2023/04/01 11:15:43;;;;;;;5.05;1.58;;;;;;;19.38;49.39;99757.25;4989105;28;20030;-69
2023/04/01 11:18:43;;;;;;;8.23;1.67;;;;;;;19.44;49.21;99756.63;4982780;28;20448;-68
2023/04/01 11:21:46;;;;;;;5.00;1.60;;;;;;;19.46;49.03;99767.03;4992832;28;20050;-70
2023/04/01 11:24:27;;;;;;;5.35;1.60;;;;;;;19.46;48.98;99762.56;4991342;28;20180;-71
2023/04/01 11:27:30;;;;;;;5.03;1.77;;;;;;;19.48;49.11;99768.50;5002651;28;20038;-68
2023/04/01 11:30:28;;;;;;;7.05;1.92;;;;;;;19.46;48.99;99767.84;4980679;28;20108;-70
2023/04/01 11:33:04;;;;;;;5.55;1.90;;;;;;;19.44;49.02;99766.34;4975001;28;20121;-72
2023/04/01 11:35:36;;;;;;;5.40;1.83;;;;;;;19.42;48.88;99773.59;4978341;28;20499;-72
2023/04/01 11:38:25;;;;;;;4.40;1.92;;;;;;;19.39;49.30;99774.72;4991621;28;20042;-69
2023/04/01 11:41:23;;;;;;;3.67;2.10;;;;;;;19.34;49.41;99780.53;4991440;28;20045;-68
2023/04/01 11:44:11;;;;;;;4.60;1.90;;;;;;;19.36;49.34;99783.81;4982202;28;20710;-68
2023/04/01 11:46:46;;;;;;;6.88;1.80;;;;;;;19.38;49.32;99789.78;4993527;28;20042;-66
2023/04/01 11:49:36;;;;;;;5.70;2.05;;;;;;;19.38;49.26;99794.22;4989002;28;20033;-67
2023/04/01 11:52:39;;;;;;;3.67;1.60;;;;;;;19.39;49.19;99790.59;4988228;28;20545;-64
2023/04/01 11:55:18;;;;;;;4.40;1.80;;;;;;;19.39;49.34;99786.16;4982796;28;20117;-67
2023/04/01 11:57:55;;;;;;;5.55;1.75;;;;;;;19.38;49.10;99804.81;4982721;28;20447;-68
2023/04/01 12:00:35;;;;;;;3.63;1.60;;;;;;;19.34;49.27;99801.66;4982770;28;20049;-65
2023/04/01 12:03:26;;;;;;;5.43;1.80;;;;;;;19.34;49.12;99799.00;4984244;28;20062;-65
2023/04/01 12:06:02;;;;;;;5.15;1.83;;;;;;;19.32;48.85;99800.97;4987875;28;20030;-66
2023/04/01 12:09:03;;;;;;;7.32;1.80;;;;;;;19.36;48.92;99820.00;4987452;28;20040;-64
2023/04/01 12:11:40;;;;;;;4.22;1.70;;;;;;;19.34;48.80;99808.72;4997592;28;20467;-65
2023/04/01 12:14:14;;;;;;;8.60;1.67;;;;;;;19.30;49.02;99810.88;4982462;28;20391;-65